createdAt,value
2023-05-14T00:00:38.336Z,25.77
2023-05-14T00:02:40.075Z,25.77
2023-05-14T00:04:41.780Z,25.77
2023-05-14T00:06:43.434Z,25.79
2023-05-14T00:08:45.213Z,25.79
2023-05-14T00:10:46.978Z,25.80
2023-05-14T00:12:48.729Z,25.81
2023-05-14T00:14:50.424Z,25.81
2023-05-14T00:16:52.052Z,25.81
2023-05-14T00:18:53.737Z,25.82
2023-05-14T00:20:55.391Z,25.81
2023-05-14T00:22:56.990Z,25.80
2023-05-14T00:24:58.742Z,25.78
2023-05-14T00:27:00.446Z,25.79
2023-05-14T00:29:02.034Z,25.82
2023-05-14T00:31:03.917Z,25.82
2023-05-14T00:33:06.360Z,25.82
2023-05-14T00:35:08.547Z,25.84
2023-05-14T00:37:10.291Z,25.85
2023-05-14T00:39:12.481Z,25.83
2023-05-14T00:41:14.189Z,25.84
2023-05-14T00:43:15.900Z,25.83
2023-05-14T00:45:17.574Z,25.82
2023-05-14T00:47:19.415Z,25.82
2023-05-14T00:49:21.383Z,25.82
2023-05-14T00:51:23.133Z,25.81
2023-05-14T00:53:24.762Z,25.83
2023-05-14T00:55:26.629Z,25.84
2023-05-14T00:57:28.519Z,25.85
2023-05-14T00:59:30.229Z,25.86
2023-05-14T01:01:32.098Z,25.86
2023-05-14T01:03:34.341Z,25.86
2023-05-14T01:06:07.074Z,25.87
2023-05-14T01:08:34.133Z,25.87
2023-05-14T01:11:26.370Z,25.86
2023-05-14T01:13:36.286Z,25.83
2023-05-14T01:15:39.882Z,25.84
2023-05-14T01:17:54.417Z,25.85
2023-05-14T01:19:56.723Z,25.85
2023-05-14T01:21:58.253Z,25.86
2023-05-14T01:23:59.944Z,25.86
2023-05-14T01:26:01.659Z,25.86
2023-05-14T01:28:29.660Z,25.88
2023-05-14T01:30:43.093Z,25.86
2023-05-14T01:32:47.641Z,25.86
2023-05-14T01:34:50.591Z,25.87
2023-05-14T01:36:53.554Z,25.87
2023-05-14T01:38:55.477Z,25.85
2023-05-14T01:40:57.569Z,25.84
2023-05-14T01:42:59.313Z,25.85
2023-05-14T01:45:01.074Z,25.86
2023-05-14T01:47:03.479Z,25.87
2023-05-14T01:49:05.173Z,25.87
2023-05-14T01:51:06.827Z,25.88
2023-05-14T01:53:08.490Z,25.88
2023-05-14T01:55:10.793Z,25.88
2023-05-14T01:57:12.487Z,25.88
2023-05-14T01:59:14.167Z,25.87
2023-05-14T02:01:16.208Z,25.87
2023-05-14T02:03:18.031Z,25.85
2023-05-14T02:05:19.783Z,25.85
2023-05-14T02:07:21.475Z,25.85
2023-05-14T02:09:23.167Z,25.85
2023-05-14T02:11:24.800Z,25.84
2023-05-14T02:13:26.810Z,25.83
2023-05-14T02:15:28.400Z,25.84
2023-05-14T02:17:30.113Z,25.85
2023-05-14T02:19:31.697Z,25.85
2023-05-14T02:21:33.280Z,25.85
2023-05-14T02:23:41.447Z,25.84
2023-05-14T02:25:44.482Z,25.84
2023-05-14T02:27:46.127Z,25.83
2023-05-14T02:29:47.950Z,25.84
2023-05-14T02:31:49.650Z,25.82
2023-05-14T02:33:51.394Z,25.82
2023-05-14T02:35:53.201Z,25.82
2023-05-14T02:37:54.844Z,25.83
2023-05-14T02:39:56.425Z,25.82
2023-05-14T02:41:58.058Z,25.85
2023-05-14T02:43:59.724Z,25.85
2023-05-14T02:46:01.429Z,25.85
2023-05-14T02:48:03.136Z,25.86
2023-05-14T02:50:06.433Z,25.85
2023-05-14T02:52:08.017Z,25.85
2023-05-14T02:54:09.635Z,25.85
2023-05-14T02:56:11.297Z,25.83
2023-05-14T02:58:12.829Z,25.84
2023-05-14T03:00:14.631Z,25.85
2023-05-14T03:02:16.539Z,25.83
2023-05-14T03:04:18.674Z,25.85
2023-05-14T03:06:20.394Z,25.86
2023-05-14T03:08:22.022Z,25.86
2023-05-14T03:10:23.838Z,25.87
2023-05-14T03:12:25.690Z,25.88
2023-05-14T03:14:27.284Z,25.88
2023-05-14T03:16:29.090Z,25.87
2023-05-14T03:18:30.772Z,25.86
2023-05-14T03:20:32.377Z,25.85
2023-05-14T03:22:34.081Z,25.87
2023-05-14T03:24:38.685Z,25.85
2023-05-14T03:26:40.330Z,25.87
2023-05-14T03:28:41.841Z,25.87
2023-05-14T03:30:43.530Z,25.86
2023-05-14T03:32:45.394Z,25.88
2023-05-14T03:34:47.053Z,25.88
2023-05-14T03:36:48.785Z,25.88
2023-05-14T03:38:50.407Z,25.90
2023-05-14T03:40:52.090Z,25.89
2023-05-14T03:42:53.978Z,25.88
2023-05-14T03:44:55.547Z,25.87
2023-05-14T03:46:57.241Z,25.87
2023-05-14T03:48:58.880Z,25.86
2023-05-14T03:51:00.541Z,25.85
2023-05-14T03:53:02.466Z,25.86
2023-05-14T03:55:04.261Z,25.86
2023-05-14T03:57:05.913Z,25.88
2023-05-14T03:59:07.498Z,25.89
2023-05-14T04:01:09.134Z,25.89
2023-05-14T04:03:11.100Z,25.90
2023-05-14T04:05:13.085Z,25.90
2023-05-14T04:07:14.644Z,25.90
2023-05-14T04:09:16.291Z,25.89
2023-05-14T04:11:18.132Z,25.89
2023-05-14T04:13:19.755Z,25.88
2023-05-14T04:15:21.444Z,25.87
2023-05-14T04:17:23.132Z,25.88
2023-05-14T04:19:24.916Z,25.88
2023-05-14T04:21:26.494Z,25.88
2023-05-14T04:23:28.441Z,25.89
2023-05-14T04:25:30.451Z,25.89
2023-05-14T04:27:33.414Z,25.89
2023-05-14T04:29:35.142Z,25.90
2023-05-14T04:31:36.816Z,25.89
2023-05-14T04:33:38.577Z,25.89
2023-05-14T04:35:40.185Z,25.88
2023-05-14T04:37:42.055Z,25.88
2023-05-14T04:39:43.735Z,25.87
2023-05-14T04:41:45.492Z,25.89
2023-05-14T04:43:49.290Z,25.88
2023-05-14T04:45:52.342Z,25.90
2023-05-14T04:47:54.154Z,25.90
2023-05-14T04:49:55.898Z,25.90
2023-05-14T04:51:57.455Z,25.91
2023-05-14T04:53:59.148Z,25.89
2023-05-14T04:56:00.870Z,25.91
2023-05-14T04:58:03.312Z,25.91
2023-05-14T05:00:06.047Z,25.89
2023-05-14T05:02:07.727Z,25.88
2023-05-14T05:04:09.322Z,25.88
2023-05-14T05:06:11.232Z,25.87
2023-05-14T05:08:12.917Z,25.87
2023-05-14T05:10:17.395Z,25.88
2023-05-14T05:12:19.194Z,25.89
2023-05-14T05:14:20.850Z,25.89
2023-05-14T05:16:22.801Z,25.89
2023-05-14T05:18:24.488Z,25.89
2023-05-14T05:20:28.050Z,25.88
2023-05-14T05:22:29.643Z,25.88
2023-05-14T05:24:31.274Z,25.86
2023-05-14T05:26:32.882Z,25.86
2023-05-14T05:28:34.724Z,25.85
2023-05-14T05:30:36.470Z,25.85
2023-05-14T05:32:38.206Z,25.83
2023-05-14T05:34:39.815Z,25.84
2023-05-14T05:36:41.450Z,25.85
2023-05-14T05:38:43.001Z,25.85
2023-05-14T05:40:45.093Z,25.86
2023-05-14T05:42:46.785Z,25.86
2023-05-14T05:44:48.451Z,25.86
2023-05-14T05:46:51.067Z,25.86
2023-05-14T05:48:53.301Z,25.86
2023-05-14T05:50:55.333Z,25.86
2023-05-14T05:52:59.093Z,25.85
2023-05-14T05:55:01.060Z,25.85
2023-05-14T05:57:02.687Z,25.85
2023-05-14T05:59:04.422Z,25.84
2023-05-14T06:01:06.532Z,25.84
2023-05-14T06:03:08.145Z,25.85
2023-05-14T06:05:10.463Z,25.87
2023-05-14T06:07:12.356Z,25.87
2023-05-14T06:09:13.934Z,25.87
2023-05-14T06:11:16.822Z,25.87
2023-05-14T06:13:18.477Z,25.87
2023-05-14T06:15:20.134Z,25.87
2023-05-14T06:17:22.025Z,25.86
2023-05-14T06:19:23.577Z,25.85
2023-05-14T06:21:25.352Z,25.85
2023-05-14T06:23:27.055Z,25.85
2023-05-14T06:25:28.630Z,25.85
2023-05-14T06:27:30.346Z,25.85
2023-05-14T06:29:31.843Z,25.85
2023-05-14T06:31:33.795Z,25.88
2023-05-14T06:33:35.547Z,25.89
2023-05-14T06:35:37.183Z,25.89
2023-05-14T06:37:38.725Z,25.89
2023-05-14T06:39:40.533Z,25.89
2023-05-14T06:41:42.116Z,25.88
2023-05-14T06:43:43.967Z,25.87
2023-05-14T06:45:48.976Z,25.86
2023-05-14T06:47:50.743Z,25.85
2023-05-14T06:49:52.444Z,25.85
2023-05-14T06:51:54.205Z,25.86
2023-05-14T06:53:56.251Z,25.87
2023-05-14T06:55:58.017Z,25.87
2023-05-14T06:57:59.726Z,25.88
2023-05-14T07:00:03.159Z,25.88
2023-05-14T07:02:05.439Z,25.90
2023-05-14T07:04:07.203Z,25.89
2023-05-14T07:06:08.846Z,25.87
2023-05-14T07:08:11.162Z,25.87
2023-05-14T07:10:12.792Z,25.86
2023-05-14T07:12:14.409Z,25.87
2023-05-14T07:14:15.998Z,25.86
2023-05-14T07:16:17.551Z,25.87
2023-05-14T07:18:19.261Z,25.86
2023-05-14T07:20:20.906Z,25.89
2023-05-14T07:22:22.510Z,25.88
2023-05-14T07:24:24.198Z,25.89
2023-05-14T07:26:26.347Z,25.89
2023-05-14T07:28:27.890Z,25.89
2023-05-14T07:30:29.417Z,25.89
2023-05-14T07:32:30.944Z,25.88
2023-05-14T07:34:32.513Z,25.89
2023-05-14T07:36:34.274Z,25.89
2023-05-14T07:38:35.920Z,25.88
2023-05-14T07:40:37.522Z,25.88
2023-05-14T07:42:39.148Z,25.88
2023-05-14T07:44:40.711Z,25.89
2023-05-14T07:46:42.629Z,25.89
2023-05-14T07:48:44.488Z,25.89
2023-05-14T07:50:48.131Z,25.90
2023-05-14T07:52:49.732Z,25.91
2023-05-14T07:54:51.813Z,25.91
2023-05-14T07:56:53.555Z,25.89
2023-05-14T07:58:55.333Z,25.90
2023-05-14T08:00:57.594Z,25.89
2023-05-14T08:02:59.419Z,25.89
2023-05-14T08:05:01.479Z,25.89
2023-05-14T08:07:03.137Z,25.88
2023-05-14T08:09:07.318Z,25.89
2023-05-14T08:11:09.167Z,25.89
2023-05-14T08:13:10.944Z,25.90
2023-05-14T08:15:12.618Z,25.90
2023-05-14T08:17:14.759Z,25.91
2023-05-14T08:19:16.993Z,25.91
2023-05-14T08:21:18.709Z,25.90
2023-05-14T08:23:20.508Z,25.90
2023-05-14T08:25:22.087Z,25.89
2023-05-14T08:27:23.742Z,25.89
2023-05-14T08:29:25.976Z,25.89
2023-05-14T08:31:27.659Z,25.89
2023-05-14T08:33:29.357Z,25.89
2023-05-14T08:35:31.060Z,25.90
2023-05-14T08:37:32.724Z,25.91
2023-05-14T08:39:34.285Z,25.92
2023-05-14T08:41:36.303Z,25.93
2023-05-14T08:44:04.568Z,25.92
2023-05-14T08:46:06.994Z,25.90
2023-05-14T08:48:11.059Z,25.91
2023-05-14T08:50:13.074Z,25.90
2023-05-14T08:52:14.777Z,25.90
2023-05-14T08:54:17.732Z,25.89
2023-05-14T08:56:19.636Z,25.87
2023-05-14T08:58:21.290Z,25.88
2023-05-14T09:00:23.489Z,25.89
2023-05-14T09:02:29.385Z,25.90
2023-05-14T09:04:31.469Z,25.91
2023-05-14T09:06:33.340Z,25.92
2023-05-14T09:08:36.280Z,25.92
2023-05-14T09:10:37.803Z,25.91
2023-05-14T09:12:39.373Z,25.90
2023-05-14T09:14:41.359Z,25.91
2023-05-14T09:16:47.574Z,25.90
2023-05-14T09:18:49.302Z,25.91
2023-05-14T09:20:52.122Z,25.90
2023-05-14T09:22:54.799Z,25.91
2023-05-14T09:25:07.310Z,25.92
2023-05-14T09:27:10.325Z,25.93
2023-05-14T09:29:12.120Z,25.94
2023-05-14T09:31:13.710Z,25.94
2023-05-14T09:33:29.001Z,25.94
2023-05-14T09:35:31.103Z,25.94
2023-05-14T09:37:36.420Z,25.95
2023-05-14T09:39:38.173Z,25.94
2023-05-14T09:41:39.817Z,25.94
2023-05-14T09:43:41.417Z,25.94
2023-05-14T09:45:43.128Z,25.93
2023-05-14T09:47:45.346Z,25.91
2023-05-14T09:49:48.987Z,25.94
2023-05-14T09:51:50.809Z,25.94
2023-05-14T09:53:54.213Z,25.95
2023-05-14T09:55:55.799Z,25.94
2023-05-14T09:57:57.420Z,25.96
2023-05-14T09:59:59.221Z,25.96
2023-05-14T10:02:01.000Z,25.96
2023-05-14T10:04:07.763Z,25.97
2023-05-14T10:06:10.560Z,25.96
2023-05-14T10:08:33.459Z,25.96
2023-05-14T10:10:35.402Z,25.96
2023-05-14T10:12:39.172Z,25.95
2023-05-14T10:14:44.346Z,25.96
2023-05-14T10:16:51.091Z,25.96
2023-05-14T10:18:57.630Z,25.97
2023-05-14T10:21:06.736Z,25.96
2023-05-14T10:23:08.399Z,25.99
2023-05-14T10:25:10.694Z,25.99
2023-05-14T10:27:12.491Z,26.00
2023-05-14T10:29:14.369Z,25.98
2023-05-14T10:31:16.120Z,26.00
2023-05-14T10:33:18.744Z,26.00
2023-05-14T10:35:22.854Z,25.99
2023-05-14T10:37:27.835Z,25.98
2023-05-14T10:39:56.054Z,26.00
2023-05-14T10:41:57.652Z,26.00
2023-05-14T10:43:59.549Z,26.02
2023-05-14T10:46:01.195Z,26.02
2023-05-14T10:48:02.793Z,26.03
2023-05-14T10:50:06.630Z,26.05
2023-05-14T10:52:09.396Z,26.04
2023-05-14T10:54:12.340Z,26.05
2023-05-14T10:56:14.583Z,26.04
2023-05-14T10:58:16.349Z,26.04
2023-05-14T11:00:18.237Z,26.03
2023-05-14T11:02:25.347Z,26.04
2023-05-14T11:04:28.198Z,26.04
2023-05-14T11:06:29.952Z,26.06
2023-05-14T11:08:32.623Z,26.06
2023-05-14T11:10:35.640Z,26.06
2023-05-14T11:12:39.592Z,26.09
2023-05-14T11:14:41.730Z,26.08
2023-05-14T11:16:43.657Z,26.10
2023-05-14T11:18:45.721Z,26.10
2023-05-14T11:20:47.262Z,26.09
2023-05-14T11:22:51.496Z,26.09
2023-05-14T11:24:53.461Z,26.09
2023-05-14T11:26:56.401Z,26.08
2023-05-14T11:28:58.167Z,26.08
2023-05-14T11:30:59.934Z,26.09
2023-05-14T11:33:02.300Z,26.11
2023-05-14T11:35:04.875Z,26.12
2023-05-14T11:37:10.189Z,26.13
2023-05-14T11:39:18.142Z,26.13
2023-05-14T11:41:21.615Z,26.14
2023-05-14T11:43:29.305Z,26.14
2023-05-14T11:45:32.973Z,26.14
2023-05-14T11:47:34.615Z,26.14
2023-05-14T11:49:37.806Z,26.14
2023-05-14T11:51:39.447Z,26.16
2023-05-14T11:53:41.180Z,26.16
2023-05-14T11:55:42.833Z,26.15
2023-05-14T11:57:44.634Z,26.17
2023-05-14T11:59:47.451Z,26.18
2023-05-14T12:01:50.696Z,26.17
2023-05-14T12:03:52.733Z,26.19
2023-05-14T12:05:58.929Z,26.21
2023-05-14T12:08:00.783Z,26.22
2023-05-14T12:10:03.587Z,26.21
2023-05-14T12:12:10.326Z,26.22
2023-05-14T12:14:19.539Z,26.21
2023-05-14T12:16:21.581Z,26.21
2023-05-14T12:18:27.357Z,26.22
2023-05-14T12:20:29.595Z,26.22
2023-05-14T12:22:31.493Z,26.23
2023-05-14T12:24:33.167Z,26.24
2023-05-14T12:26:34.848Z,26.25
2023-05-14T12:28:42.981Z,26.26
2023-05-14T12:30:45.835Z,26.26
2023-05-14T12:32:48.958Z,26.28
2023-05-14T12:34:50.624Z,26.28
2023-05-14T12:36:52.292Z,26.27
2023-05-14T12:39:04.040Z,26.28
2023-05-14T12:41:05.639Z,26.27
2023-05-14T12:43:07.487Z,26.28
2023-05-14T12:45:09.316Z,26.27
2023-05-14T12:47:11.118Z,26.29
2023-05-14T12:49:12.804Z,26.32
2023-05-14T12:51:14.583Z,26.32
2023-05-14T12:53:16.478Z,26.34
2023-05-14T12:55:18.098Z,26.34
2023-05-14T12:57:19.707Z,26.36
2023-05-14T12:59:21.264Z,26.37
2023-05-14T13:01:23.625Z,26.37
2023-05-14T13:03:26.473Z,26.37
2023-05-14T13:05:28.168Z,26.38
2023-05-14T13:07:30.405Z,26.38
2023-05-14T13:09:31.932Z,26.38
2023-05-14T13:11:33.546Z,26.39
2023-05-14T13:13:35.156Z,26.41
2023-05-14T13:15:36.865Z,26.41
2023-05-14T13:17:38.587Z,26.42
2023-05-14T13:19:40.230Z,26.44
2023-05-14T13:21:41.800Z,26.44
2023-05-14T13:23:43.455Z,26.45
2023-05-14T13:25:45.804Z,26.46
2023-05-14T13:27:51.064Z,26.45
2023-05-14T13:29:52.808Z,26.46
2023-05-14T13:31:54.357Z,26.46
2023-05-14T13:33:58.060Z,26.46
2023-05-14T13:35:59.681Z,26.46
2023-05-14T13:38:01.265Z,26.47
2023-05-14T13:40:04.426Z,26.49
2023-05-14T13:42:06.297Z,26.51
2023-05-14T13:44:07.939Z,26.51
2023-05-14T13:46:09.943Z,26.52
2023-05-14T13:48:11.641Z,26.53
2023-05-14T13:50:14.053Z,26.57
2023-05-14T13:52:16.252Z,26.57
2023-05-14T13:54:17.967Z,26.58
2023-05-14T13:56:20.132Z,26.58
2023-05-14T13:58:23.748Z,26.58
2023-05-14T14:00:27.139Z,26.57
2023-05-14T14:02:28.730Z,26.59
2023-05-14T14:04:30.692Z,26.59
2023-05-14T14:06:33.194Z,26.61
2023-05-14T14:08:35.123Z,26.62
2023-05-14T14:10:36.760Z,26.64
2023-05-14T14:12:38.348Z,26.66
2023-05-14T14:14:40.368Z,26.66
2023-05-14T14:16:42.129Z,26.67
2023-05-14T14:18:43.868Z,26.69
2023-05-14T14:20:45.646Z,26.69
2023-05-14T14:22:47.294Z,26.68
2023-05-14T14:24:48.813Z,26.69
2023-05-14T14:26:50.353Z,26.68
2023-05-14T14:28:51.888Z,26.70
2023-05-14T14:30:53.584Z,26.70
2023-05-14T14:32:55.335Z,26.72
2023-05-14T14:34:56.890Z,26.73
2023-05-14T14:36:58.537Z,26.75
2023-05-14T14:39:00.403Z,26.76
2023-05-14T14:41:03.183Z,26.77
2023-05-14T14:43:04.813Z,26.78
2023-05-14T14:45:07.316Z,26.78
2023-05-14T14:47:08.878Z,26.79
2023-05-14T14:49:10.632Z,26.80
2023-05-14T14:51:12.444Z,26.80
2023-05-14T14:53:13.955Z,26.82
2023-05-14T14:55:15.664Z,26.83
2023-05-14T14:57:17.325Z,26.84
2023-05-14T14:59:19.054Z,26.85
2023-05-14T15:01:21.390Z,26.86
2023-05-14T15:03:24.265Z,26.87
2023-05-14T15:05:26.254Z,26.87
2023-05-14T15:07:29.584Z,26.87
2023-05-14T15:09:31.452Z,26.87
2023-05-14T15:11:34.463Z,26.88
2023-05-14T15:13:37.188Z,26.87
2023-05-14T15:15:41.591Z,26.88
2023-05-14T15:17:43.271Z,26.88
2023-05-14T15:19:44.882Z,26.87
2023-05-14T15:21:46.504Z,26.88
2023-05-14T15:23:48.027Z,26.89
2023-05-14T15:25:49.970Z,26.89
2023-05-14T15:27:51.815Z,26.90
2023-05-14T15:29:53.601Z,26.91
2023-05-14T15:31:55.403Z,26.92
2023-05-14T15:33:56.984Z,26.92
2023-05-14T15:35:58.539Z,26.91
2023-05-14T15:38:00.075Z,26.91
2023-05-14T15:40:01.792Z,26.91
2023-05-14T15:42:04.169Z,26.89
2023-05-14T15:44:05.870Z,26.90
2023-05-14T15:46:07.507Z,26.89
2023-05-14T15:48:09.203Z,26.88
2023-05-14T15:50:11.313Z,26.90
2023-05-14T15:52:13.805Z,26.90
2023-05-14T15:54:15.461Z,26.92
2023-05-14T15:56:17.051Z,26.94
2023-05-14T15:58:18.771Z,26.94
2023-05-14T16:00:20.910Z,26.96
2023-05-14T16:02:22.616Z,26.94
2023-05-14T16:04:24.113Z,26.94
2023-05-14T16:06:28.643Z,26.95
2023-05-14T16:08:30.273Z,26.94
2023-05-14T16:10:31.896Z,26.95
2023-05-14T16:12:33.807Z,26.95
2023-05-14T16:14:35.607Z,26.94
2023-05-14T16:16:37.406Z,26.95
2023-05-14T16:18:40.185Z,26.97
2023-05-14T16:20:41.803Z,26.97
2023-05-14T16:22:43.482Z,26.96
2023-05-14T16:24:45.065Z,26.98
2023-05-14T16:26:46.678Z,26.97
2023-05-14T16:28:48.194Z,26.98
2023-05-14T16:30:49.726Z,26.97
2023-05-14T16:32:51.533Z,26.96
2023-05-14T16:34:53.299Z,26.97
2023-05-14T16:36:54.931Z,26.96
2023-05-14T16:39:06.757Z,26.96
2023-05-14T16:41:09.781Z,26.97
2023-05-14T16:43:11.597Z,26.98
2023-05-14T16:45:13.415Z,26.98
2023-05-14T16:47:14.949Z,26.98
2023-05-14T16:49:16.856Z,26.98
2023-05-14T16:51:18.527Z,26.98
2023-05-14T16:53:20.438Z,26.99
2023-05-14T16:55:22.096Z,26.99
2023-05-14T16:57:23.816Z,26.98
2023-05-14T16:59:25.644Z,26.97
2023-05-14T17:01:27.262Z,26.97
2023-05-14T17:03:28.853Z,26.97
2023-05-14T17:05:30.520Z,26.96
2023-05-14T17:07:32.112Z,26.98
2023-05-14T17:09:33.768Z,26.99
2023-05-14T17:11:35.636Z,27.00
2023-05-14T17:13:37.211Z,27.00
2023-05-14T17:15:41.707Z,27.01
2023-05-14T17:17:43.252Z,27.02
2023-05-14T17:19:48.350Z,27.01
2023-05-14T17:21:49.946Z,27.02
2023-05-14T17:23:51.559Z,27.01
2023-05-14T17:25:53.235Z,27.01
2023-05-14T17:27:54.866Z,27.01
2023-05-14T17:29:56.541Z,26.99
2023-05-14T17:32:00.560Z,26.98
2023-05-14T17:34:02.335Z,26.99
2023-05-14T17:36:04.393Z,27.01
2023-05-14T17:38:06.189Z,27.00
2023-05-14T17:40:08.988Z,27.03
2023-05-14T17:42:10.945Z,27.03
2023-05-14T17:44:13.262Z,27.04
2023-05-14T17:46:15.202Z,27.03
2023-05-14T17:48:17.244Z,27.03
2023-05-14T17:50:19.470Z,27.02
2023-05-14T17:52:21.450Z,27.01
2023-05-14T17:54:23.005Z,27.01
2023-05-14T17:56:24.613Z,27.00
2023-05-14T17:58:26.188Z,26.99
2023-05-14T18:00:27.807Z,27.01
2023-05-14T18:02:29.524Z,27.01
2023-05-14T18:04:31.200Z,27.02
2023-05-14T18:06:32.759Z,27.03
2023-05-14T18:08:34.338Z,27.02
2023-05-14T18:10:36.237Z,27.03
2023-05-14T18:12:37.904Z,27.02
2023-05-14T18:14:39.445Z,27.03
2023-05-14T18:16:41.176Z,27.02
2023-05-14T18:18:42.945Z,27.01
2023-05-14T18:20:44.551Z,27.01
2023-05-14T18:22:46.159Z,27.00
2023-05-14T18:24:47.817Z,27.00
2023-05-14T18:26:49.443Z,27.01
2023-05-14T18:28:51.469Z,26.99
2023-05-14T18:30:53.011Z,27.01
2023-05-14T18:32:54.680Z,27.02
2023-05-14T18:34:56.320Z,27.02
2023-05-14T18:36:58.426Z,27.03
2023-05-14T18:38:59.979Z,27.04
2023-05-14T18:41:01.588Z,27.03
2023-05-14T18:43:03.174Z,27.02
2023-05-14T18:45:05.053Z,27.08
2023-05-14T18:47:07.115Z,27.18
2023-05-14T18:49:08.934Z,27.32
2023-05-14T18:51:12.227Z,27.44
2023-05-14T18:53:13.845Z,27.58
2023-05-14T18:55:15.594Z,27.59
2023-05-14T18:57:17.188Z,27.58
2023-05-14T18:59:19.019Z,27.56
2023-05-14T19:01:21.350Z,27.53
2023-05-14T19:03:23.157Z,27.48
2023-05-14T19:05:25.136Z,27.44
2023-05-14T19:07:27.728Z,27.39
2023-05-14T19:09:29.582Z,27.36
2023-05-14T19:11:31.310Z,27.33
2023-05-14T19:13:33.087Z,27.30
2023-05-14T19:15:34.750Z,27.28
2023-05-14T19:17:37.506Z,27.26
2023-05-14T19:19:39.474Z,27.24
2023-05-14T19:21:41.105Z,27.22
2023-05-14T19:23:42.736Z,27.20
2023-05-14T19:25:44.782Z,27.21
2023-05-14T19:27:50.875Z,27.21
2023-05-14T19:29:52.517Z,27.21
2023-05-14T19:31:54.454Z,27.20
2023-05-14T19:33:56.150Z,27.19
2023-05-14T19:35:57.794Z,27.19
2023-05-14T19:37:59.485Z,27.17
2023-05-14T19:40:01.292Z,27.16
2023-05-14T19:42:02.848Z,27.15
2023-05-14T19:44:04.380Z,27.13
2023-05-14T19:46:06.528Z,27.15
2023-05-14T19:48:08.944Z,27.15
2023-05-14T19:50:11.178Z,27.15
2023-05-14T19:52:12.898Z,27.15
2023-05-14T19:54:14.658Z,27.15
2023-05-14T19:56:16.575Z,27.16
2023-05-14T19:58:18.266Z,27.15
2023-05-14T20:00:20.106Z,27.14
2023-05-14T20:02:22.774Z,27.12
2023-05-14T20:04:26.072Z,27.11
2023-05-14T20:06:27.810Z,27.10
2023-05-14T20:08:29.441Z,27.11
2023-05-14T20:10:31.183Z,27.10
2023-05-14T20:12:32.757Z,27.10
2023-05-14T20:14:34.350Z,27.11
2023-05-14T20:16:36.923Z,27.11
2023-05-14T20:18:38.488Z,27.11
2023-05-14T20:20:40.025Z,27.11
2023-05-14T20:22:42.807Z,27.11
2023-05-14T20:24:44.532Z,27.10
2023-05-14T20:26:46.123Z,27.10
2023-05-14T20:28:47.648Z,27.09
2023-05-14T20:30:49.205Z,27.09
2023-05-14T20:32:51.276Z,27.08
2023-05-14T20:34:53.247Z,27.08
2023-05-14T20:36:54.778Z,27.09
2023-05-14T20:38:56.581Z,27.09
2023-05-14T20:40:58.352Z,27.09
2023-05-14T20:43:00.051Z,27.10
2023-05-14T20:45:01.579Z,27.10
2023-05-14T20:47:03.277Z,27.10
2023-05-14T20:49:04.893Z,27.10
2023-05-14T20:51:06.472Z,27.09
2023-05-14T20:53:08.198Z,27.11
2023-05-14T20:55:10.011Z,27.09
2023-05-14T20:57:12.398Z,27.09
2023-05-14T20:59:14.068Z,27.09
2023-05-14T21:01:15.792Z,27.09
2023-05-14T21:03:17.892Z,27.07
2023-05-14T21:05:20.721Z,27.07
2023-05-14T21:07:22.341Z,27.09
2023-05-14T21:09:24.011Z,27.10
2023-05-14T21:11:25.624Z,27.11
2023-05-14T21:13:27.153Z,27.11
2023-05-14T21:15:30.640Z,27.11
2023-05-14T21:17:32.456Z,27.11
2023-05-14T21:19:34.064Z,27.10
2023-05-14T21:21:35.644Z,27.10
2023-05-14T21:23:39.425Z,27.09
2023-05-14T21:25:41.092Z,27.08
2023-05-14T21:27:42.620Z,27.09
2023-05-14T21:29:47.599Z,27.09
2023-05-14T21:31:49.361Z,27.10
2023-05-14T21:33:51.268Z,27.10
2023-05-14T21:35:52.923Z,27.11
2023-05-14T21:37:54.466Z,27.11
2023-05-14T21:39:56.172Z,27.12
2023-05-14T21:41:57.740Z,27.12
2023-05-14T21:43:59.349Z,27.11
2023-05-14T21:46:01.155Z,27.09
2023-05-14T21:48:02.935Z,27.10
2023-05-14T21:50:05.129Z,27.10
2023-05-14T21:52:06.708Z,27.09
2023-05-14T21:54:08.279Z,27.08
2023-05-14T21:56:09.916Z,27.09
2023-05-14T21:58:11.579Z,27.10
2023-05-14T22:00:14.040Z,27.10
2023-05-14T22:02:15.706Z,27.11
2023-05-14T22:04:17.554Z,27.11
2023-05-14T22:06:19.445Z,27.11
2023-05-14T22:08:21.479Z,27.11
2023-05-14T22:10:23.113Z,27.11
2023-05-14T22:12:24.739Z,27.12
2023-05-14T22:14:29.365Z,27.10
2023-05-14T22:16:31.150Z,27.10
2023-05-14T22:18:34.137Z,27.09
2023-05-14T22:20:35.869Z,27.09
2023-05-14T22:22:37.840Z,27.08
2023-05-14T22:24:39.405Z,27.09
2023-05-14T22:26:40.987Z,27.10
2023-05-14T22:28:43.584Z,27.11
2023-05-14T22:30:45.153Z,27.12
2023-05-14T22:32:47.379Z,27.11
2023-05-14T22:34:49.228Z,27.11
2023-05-14T22:36:51.064Z,27.12
2023-05-14T22:38:52.673Z,27.10
2023-05-14T22:40:54.317Z,27.10
2023-05-14T22:42:55.932Z,27.08
2023-05-14T22:44:57.492Z,27.10
2023-05-14T22:46:59.678Z,27.09
2023-05-14T22:49:01.308Z,27.08
2023-05-14T22:51:02.954Z,27.09
2023-05-14T22:53:04.510Z,27.09
2023-05-14T22:55:06.701Z,27.09
2023-05-14T22:57:08.263Z,27.10
2023-05-14T22:59:09.930Z,27.08
2023-05-14T23:01:11.717Z,27.09
2023-05-14T23:03:13.315Z,27.09
2023-05-14T23:05:15.032Z,27.10
2023-05-14T23:07:16.806Z,27.07
2023-05-14T23:09:19.019Z,27.06
2023-05-14T23:11:21.462Z,27.07
2023-05-14T23:13:23.271Z,27.06
2023-05-14T23:15:25.320Z,27.06
2023-05-14T23:17:27.215Z,27.06
2023-05-14T23:19:28.903Z,27.07
2023-05-14T23:21:30.534Z,27.07
2023-05-14T23:23:32.220Z,27.07
2023-05-14T23:25:33.777Z,27.08
2023-05-14T23:27:35.521Z,27.07
2023-05-14T23:29:37.070Z,27.08
2023-05-14T23:31:40.958Z,27.07
2023-05-14T23:33:44.519Z,27.05
2023-05-14T23:35:46.052Z,27.05
2023-05-14T23:37:49.521Z,27.05
2023-05-14T23:39:52.831Z,27.04
2023-05-14T23:41:54.410Z,27.04
2023-05-14T23:43:55.945Z,27.05
2023-05-14T23:45:57.822Z,27.05
2023-05-14T23:48:00.935Z,27.06
2023-05-14T23:50:03.071Z,27.07
2023-05-14T23:52:05.205Z,27.06
2023-05-14T23:54:06.767Z,27.06
2023-05-14T23:56:08.947Z,27.05
2023-05-14T23:58:10.477Z,27.05
